Time,TemperatureF,DewpointF,PressureIn,WindDirection,WindDirectionDegrees,WindSpeedMPH,WindSpeedGustMPH,Humidity,HourlyPrecipIn,Conditions,Clouds,dailyrainin,SoftwareType,DateUTC
2013-11-12 00:02:00,14.0,7.0,-100.00,SE,125,2.0,3.0,73,-99.99,,,-99.99,,2013-11-12 06:02:00,
2013-11-12 00:42:00,14.0,7.0,-100.00,SE,125,2.0,3.0,73,-99.99,,,-99.99,,2013-11-12 06:42:00,
2013-11-12 00:52:00,14.0,7.0,-100.00,SE,125,2.0,3.0,73,-99.99,,,-99.99,,2013-11-12 06:52:00,
2013-11-12 01:02:00,13.0,6.0,-100.00,ESE,110,2.0,4.0,74,-99.99,,,-99.99,,2013-11-12 07:02:00,
2013-11-12 01:42:00,13.0,6.0,-100.00,ESE,110,2.0,4.0,74,-99.99,,,-99.99,,2013-11-12 07:42:00,
2013-11-12 01:52:00,13.0,6.0,-100.00,ESE,110,2.0,4.0,74,-99.99,,,-99.99,,2013-11-12 07:52:00,
2013-11-12 02:02:00,14.0,10.0,-100.00,South,180,3.0,5.0,81,-99.99,,,-99.99,,2013-11-12 08:02:00,
2013-11-12 02:42:00,14.0,10.0,-100.00,South,180,3.0,5.0,81,-99.99,,,-99.99,,2013-11-12 08:42:00,
2013-11-12 02:52:00,14.0,10.0,-100.00,South,180,3.0,5.0,81,-99.99,,,-99.99,,2013-11-12 08:52:00,
2013-11-12 03:02:00,15.0,11.0,-100.00,SSW,210,2.0,4.0,83,-99.99,,,-99.99,,2013-11-12 09:02:00,
2013-11-12 03:42:00,15.0,11.0,-100.00,SSW,210,2.0,4.0,83,-99.99,,,-99.99,,2013-11-12 09:42:00,
2013-11-12 03:53:00,15.0,11.0,-100.00,SSW,210,2.0,4.0,83,-99.99,,,-99.99,,2013-11-12 09:53:00,
2013-11-12 04:02:00,16.0,13.0,-100.00,South,180,4.0,7.0,89,-99.99,,,-99.99,,2013-11-12 10:02:00,
2013-11-12 04:42:00,16.0,13.0,-100.00,South,180,4.0,7.0,89,-99.99,,,-99.99,,2013-11-12 10:42:00,
2013-11-12 04:53:00,16.0,13.0,-100.00,South,180,4.0,7.0,89,-99.99,,,-99.99,,2013-11-12 10:53:00,
2013-11-12 05:02:00,15.0,13.0,-100.00,SSW,200,2.0,3.0,92,-99.99,,,-99.99,,2013-11-12 11:02:00,
2013-11-12 05:42:00,15.0,13.0,-100.00,SSW,200,2.0,3.0,92,-99.99,,,-99.99,,2013-11-12 11:42:00,
2013-11-12 05:52:00,15.0,13.0,-100.00,SSW,200,2.0,3.0,92,-99.99,,,-99.99,,2013-11-12 11:52:00,
2013-11-12 06:42:00,16.0,14.0,-100.00,SSE,160,2.0,4.0,93,-99.99,,,-99.99,,2013-11-12 12:42:00,
2013-11-12 06:52:00,16.0,14.0,-100.00,SSE,160,2.0,4.0,93,-99.99,,,-99.99,,2013-11-12 12:52:00,
2013-11-12 07:01:00,16.0,14.0,-100.00,SSE,160,2.0,4.0,93,-99.99,,,-99.99,,2013-11-12 13:01:00,
2013-11-12 07:02:00,16.0,14.0,-100.00,SW,220,3.0,6.0,94,-99.99,,,-99.99,,2013-11-12 13:02:00,
2013-11-12 07:42:00,16.0,14.0,-100.00,SW,220,3.0,6.0,94,-99.99,,,-99.99,,2013-11-12 13:42:00,
2013-11-12 07:52:00,16.0,14.0,-100.00,SW,220,3.0,6.0,94,-99.99,,,-99.99,,2013-11-12 13:52:00,
2013-11-12 08:02:00,16.0,15.0,-100.00,SE,145,4.0,6.0,95,-99.99,,,-99.99,,2013-11-12 14:02:00,
2013-11-12 08:42:00,16.0,15.0,-100.00,SE,145,4.0,6.0,95,-99.99,,,-99.99,,2013-11-12 14:42:00,
2013-11-12 08:52:00,16.0,15.0,-100.00,SE,145,4.0,6.0,95,-99.99,,,-99.99,,2013-11-12 14:52:00,
2013-11-12 09:02:00,18.0,14.0,-100.00,SSE,150,4.0,5.0,81,-99.99,,,-99.99,,2013-11-12 15:02:00,
2013-11-12 09:44:00,18.0,14.0,-100.00,SSE,150,4.0,5.0,81,-99.99,,,-99.99,,2013-11-12 15:44:00,
2013-11-12 09:53:00,18.0,14.0,-100.00,SSE,150,4.0,5.0,81,-99.99,,,-99.99,,2013-11-12 15:53:00,
2013-11-12 10:02:00,26.0,22.0,-100.00,SW,215,0.0,1.0,84,-99.99,,,-99.99,,2013-11-12 16:02:00,
2013-11-12 10:42:00,26.0,22.0,-100.00,SW,215,0.0,1.0,84,-99.99,,,-99.99,,2013-11-12 16:42:00,
2013-11-12 10:53:00,26.0,22.0,-100.00,SW,215,0.0,1.0,84,-99.99,,,-99.99,,2013-11-12 16:53:00,
2013-11-12 11:43:00,32.0,24.0,-100.00,SW,215,7.0,8.0,74,-99.99,,,-99.99,,2013-11-12 17:43:00,
2013-11-12 11:52:00,32.0,24.0,-100.00,SW,215,7.0,8.0,74,-99.99,,,-99.99,,2013-11-12 17:52:00,
2013-11-12 12:01:00,32.0,24.0,-100.00,SW,215,7.0,8.0,74,-99.99,,,-99.99,,2013-11-12 18:01:00,
2013-11-12 12:42:00,39.0,27.0,-100.00,SW,235,4.0,6.0,63,-99.99,,,-99.99,,2013-11-12 18:42:00,
2013-11-12 12:52:00,39.0,27.0,-100.00,SW,235,4.0,6.0,63,-99.99,,,-99.99,,2013-11-12 18:52:00,
2013-11-12 13:01:00,39.0,27.0,-100.00,SW,235,4.0,6.0,63,-99.99,,,-99.99,,2013-11-12 19:01:00,
2013-11-12 13:42:00,43.0,29.0,-100.00,SW,225,6.0,11.0,58,-99.99,,,-99.99,,2013-11-12 19:42:00,
2013-11-12 13:52:00,43.0,29.0,-100.00,SW,225,6.0,11.0,58,-99.99,,,-99.99,,2013-11-12 19:52:00,
2013-11-12 14:01:00,43.0,29.0,-100.00,SW,225,6.0,11.0,58,-99.99,,,-99.99,,2013-11-12 20:01:00,
2013-11-12 14:02:00,46.0,30.0,-100.00,SW,220,8.0,12.0,53,-99.99,,,-99.99,,2013-11-12 20:02:00,
2013-11-12 14:42:00,46.0,30.0,-100.00,SW,220,8.0,12.0,53,-99.99,,,-99.99,,2013-11-12 20:42:00,
2013-11-12 14:52:00,46.0,30.0,-100.00,SW,220,8.0,12.0,53,-99.99,,,-99.99,,2013-11-12 20:52:00,
2013-11-12 15:02:00,47.0,30.0,-100.00,South,185,7.0,11.0,51,-99.99,,,-99.99,,2013-11-12 21:02:00,
2013-11-12 15:44:00,47.0,30.0,-100.00,South,185,7.0,11.0,51,-99.99,,,-99.99,,2013-11-12 21:44:00,
2013-11-12 15:54:00,47.0,30.0,-100.00,South,185,7.0,11.0,51,-99.99,,,-99.99,,2013-11-12 21:54:00,
2013-11-12 16:02:00,47.0,29.0,-100.00,South,175,6.0,9.0,50,-99.99,,,-99.99,,2013-11-12 22:02:00,
2013-11-12 16:43:00,47.0,29.0,-100.00,South,175,6.0,9.0,50,-99.99,,,-99.99,,2013-11-12 22:43:00,
2013-11-12 16:54:00,47.0,29.0,-100.00,South,175,6.0,9.0,50,-99.99,,,-99.99,,2013-11-12 22:54:00,
2013-11-12 17:02:00,45.0,29.0,-100.00,South,185,4.0,6.0,53,-99.99,,,-99.99,,2013-11-12 23:02:00,
2013-11-12 17:42:00,45.0,29.0,-100.00,South,185,4.0,6.0,53,-99.99,,,-99.99,,2013-11-12 23:42:00,
2013-11-12 17:54:00,45.0,29.0,-100.00,South,185,4.0,6.0,53,-99.99,,,-99.99,,2013-11-12 23:54:00,
2013-11-12 18:42:00,41.0,28.0,-100.00,South,170,6.0,9.0,60,-99.99,,,-99.99,,2013-11-13 00:42:00,
2013-11-12 18:52:00,41.0,28.0,-100.00,South,170,6.0,9.0,60,-99.99,,,-99.99,,2013-11-13 00:52:00,
2013-11-12 19:01:00,41.0,28.0,-100.00,South,170,6.0,9.0,60,-99.99,,,-99.99,,2013-11-13 01:01:00,
2013-11-12 19:42:00,38.0,27.0,-100.00,SSE,150,6.0,10.0,65,-99.99,,,-99.99,,2013-11-13 01:42:00,
2013-11-12 19:52:00,38.0,27.0,-100.00,SSE,150,6.0,10.0,65,-99.99,,,-99.99,,2013-11-13 01:52:00,
2013-11-12 20:01:00,38.0,27.0,-100.00,SSE,150,6.0,10.0,65,-99.99,,,-99.99,,2013-11-13 02:01:00,
2013-11-12 20:02:00,36.0,30.0,-100.00,South,190,4.0,7.0,80,-99.99,,,-99.99,,2013-11-13 02:02:00,
2013-11-12 20:42:00,36.0,30.0,-100.00,South,190,4.0,7.0,80,-99.99,,,-99.99,,2013-11-13 02:42:00,
2013-11-12 20:52:00,36.0,30.0,-100.00,South,190,4.0,7.0,80,-99.99,,,-99.99,,2013-11-13 02:52:00,
2013-11-12 21:02:00,34.0,31.0,-100.00,SSE,150,4.0,6.0,87,-99.99,,,-99.99,,2013-11-13 03:02:00,
2013-11-12 21:45:00,34.0,31.0,-100.00,SSE,150,4.0,6.0,87,-99.99,,,-99.99,,2013-11-13 03:45:00,
2013-11-12 21:54:00,34.0,31.0,-100.00,SSE,150,4.0,6.0,87,-99.99,,,-99.99,,2013-11-13 03:54:00,
2013-11-12 22:02:00,32.0,21.0,-100.00,ESE,105,0.0,1.0,63,-99.99,,,-99.99,,2013-11-13 04:02:00,
2013-11-12 22:43:00,32.0,21.0,-100.00,ESE,105,0.0,1.0,63,-99.99,,,-99.99,,2013-11-13 04:43:00,
2013-11-12 22:53:00,32.0,21.0,-100.00,ESE,105,0.0,1.0,63,-99.99,,,-99.99,,2013-11-13 04:53:00,
2013-11-12 23:02:00,32.0,32.0,-100.00,SSW,210,2.0,3.0,99,-99.99,,,-99.99,,2013-11-13 05:02:00,
2013-11-12 23:43:00,32.0,32.0,-100.00,SSW,210,2.0,3.0,99,-99.99,,,-99.99,,2013-11-13 05:43:00,
2013-11-12 23:54:00,32.0,32.0,-100.00,SSW,210,2.0,3.0,99,-99.99,,,-99.99,,2013-11-13 05:54:00,